Time;durP1;ratioP1;P1;durP2;ratioP2;P2;SDS_P1;SDS_P2;PMS_P1;PMS_P2;Temp;Humidity;BMP_temperature;BMP_pressure;BME280_temperature;BME280_humidity;BME280_pressure;Samples;Min_cycle;Max_cycle;Signal;HPM_P1;HPM_P2
2024/01/18 00:01:27;;;;;;;2.60;1.20;;;;;;;;;;5086986;28;20443;-72
2024/01/18 00:03:53;;;;;;;6.60;1.40;;;;;;;;;;5087462;28;20048;-71
2024/01/18 00:06:19;;;;;;;3.00;1.13;;;;;;;;;;5080711;28;20383;-72
2024/01/18 00:08:46;;;;;;;2.55;1.10;;;;;;;;;;5092369;28;20032;-72
2024/01/18 00:11:12;;;;;;;1.30;1.20;;;;;;;;;;5092001;28;20048;-72
2024/01/18 00:13:39;;;;;;;3.75;1.25;;;;;;;;;;5075049;28;20044;-72
2024/01/18 00:16:05;;;;;;;6.95;1.50;;;;;;;;;;5074919;28;20042;-72
2024/01/18 00:18:31;;;;;;;1.80;1.10;;;;;;;;;;5073822;28;20094;-72
2024/01/18 00:20:57;;;;;;;3.17;1.30;;;;;;;;;;5073952;28;20044;-71
2024/01/18 00:23:23;;;;;;;2.83;1.23;;;;;;;;;;5075553;28;20032;-71
2024/01/18 00:25:49;;;;;;;3.40;1.10;;;;;;;;;;5073048;28;20511;-71
2024/01/18 00:28:15;;;;;;;2.00;1.20;;;;;;;;;;5075008;28;20037;-71
2024/01/18 00:30:41;;;;;;;2.35;1.20;;;;;;;;;;5059031;28;20560;-71
2024/01/18 00:33:07;;;;;;;8.18;1.98;;;;;;;;;;5078272;28;20040;-71
2024/01/18 00:35:33;;;;;;;4.43;1.52;;;;;;;;;;5071947;28;20075;-71
2024/01/18 00:37:59;;;;;;;2.25;1.20;;;;;;;;;;5083123;28;20073;-71
2024/01/18 00:40:26;;;;;;;3.45;1.23;;;;;;;;;;5073405;28;20599;-71
2024/01/18 00:42:52;;;;;;;7.50;1.50;;;;;;;;;;5074363;28;20123;-71
2024/01/18 00:45:18;;;;;;;2.97;1.80;;;;;;;;;;5073306;28;20043;-71
2024/01/18 00:47:44;;;;;;;2.42;1.20;;;;;;;;;;5072856;28;20119;-71
2024/01/18 00:50:10;;;;;;;1.38;1.20;;;;;;;;;;5081626;28;20063;-71
2024/01/18 00:52:36;;;;;;;3.50;1.60;;;;;;;;;;5080241;28;20098;-71
2024/01/18 00:55:02;;;;;;;7.93;1.70;;;;;;;;;;5086216;28;20043;-71
2024/01/18 00:57:28;;;;;;;1.60;1.50;;;;;;;;;;5072976;28;20040;-71
2024/01/18 00:59:55;;;;;;;5.93;1.50;;;;;;;;;;5069617;28;20031;-71
2024/01/18 01:02:21;;;;;;;8.20;1.90;;;;;;;;;;5087333;28;20123;-71
2024/01/18 01:04:47;;;;;;;5.15;1.83;;;;;;;;;;5066132;28;20040;-71
2024/01/18 01:07:13;;;;;;;3.95;1.60;;;;;;;;;;5074303;28;20036;-71
2024/01/18 01:09:39;;;;;;;7.63;1.70;;;;;;;;;;5081868;28;20463;-71
2024/01/18 01:12:05;;;;;;;4.05;1.85;;;;;;;;;;5079579;28;20040;-72
2024/01/18 01:14:31;;;;;;;2.45;1.50;;;;;;;;;;5064671;28;20054;-71
2024/01/18 01:16:57;;;;;;;3.92;1.45;;;;;;;;;;5082513;28;20044;-71
2024/01/18 01:19:23;;;;;;;3.75;1.48;;;;;;;;;;5084304;28;20044;-72
2024/01/18 01:21:49;;;;;;;4.45;1.50;;;;;;;;;;5086400;28;20044;-71
2024/01/18 01:24:16;;;;;;;5.90;1.65;;;;;;;;;;5068656;28;20044;-73
2024/01/18 01:26:42;;;;;;;3.10;1.80;;;;;;;;;;5062865;28;20055;-73
2024/01/18 01:29:10;;;;;;;4.32;1.50;;;;;;;;;;5105220;28;20072;-71
2024/01/18 01:31:36;;;;;;;6.15;1.80;;;;;;;;;;5087134;28;20096;-71
2024/01/18 01:34:02;;;;;;;7.47;1.88;;;;;;;;;;5060145;28;20040;-71
2024/01/18 01:36:28;;;;;;;13.27;2.30;;;;;;;;;;5073558;28;20119;-71
2024/01/18 01:38:54;;;;;;;7.47;2.28;;;;;;;;;;5109852;28;20036;-71
2024/01/18 01:41:21;;;;;;;6.43;2.40;;;;;;;;;;5096788;28;20131;-71
2024/01/18 01:43:59;;;;;;;5.53;2.10;;;;;;;;;;5092152;28;20472;-71
2024/01/18 01:46:26;;;;;;;4.65;2.20;;;;;;;;;;5080784;28;20038;-70
2024/01/18 01:48:56;;;;;;;8.25;2.30;;;;;;;;;;5088015;28;20042;-70
2024/01/18 01:51:23;;;;;;;3.75;2.10;;;;;;;;;;5088959;28;20032;-70
2024/01/18 01:53:49;;;;;;;5.82;2.08;;;;;;;;;;5086088;28;20040;-71
2024/01/18 01:56:15;;;;;;;3.45;1.67;;;;;;;;;;5065092;28;20058;-70
2024/01/18 01:58:41;;;;;;;3.83;1.77;;;;;;;;;;5088866;28;20071;-70
2024/01/18 02:01:07;;;;;;;3.30;1.70;;;;;;;;;;5088265;28;20037;-70
2024/01/18 02:03:33;;;;;;;2.70;1.52;;;;;;;;;;5090055;28;20047;-70
2024/01/18 02:06:00;;;;;;;2.42;1.40;;;;;;;;;;5058753;28;20032;-70
2024/01/18 02:08:27;;;;;;;4.43;1.42;;;;;;;;;;5080272;28;20043;-71
2024/01/18 02:10:53;;;;;;;7.47;2.20;;;;;;;;;;5072021;28;20127;-71
2024/01/18 02:13:19;;;;;;;11.60;2.75;;;;;;;;;;5070588;28;20036;-71
2024/01/18 02:15:45;;;;;;;5.88;2.40;;;;;;;;;;5071389;28;20040;-71
2024/01/18 02:18:12;;;;;;;7.22;2.35;;;;;;;;;;5072992;28;20043;-71
2024/01/18 02:20:38;;;;;;;2.33;1.80;;;;;;;;;;5086531;28;20031;-71
2024/01/18 02:23:05;;;;;;;7.88;2.35;;;;;;;;;;5088481;28;20385;-71
2024/01/18 02:25:32;;;;;;;5.40;2.15;;;;;;;;;;5076786;28;20119;-71
2024/01/18 02:27:58;;;;;;;7.93;2.33;;;;;;;;;;5055515;28;20032;-71
2024/01/18 02:30:24;;;;;;;6.47;2.97;;;;;;;;;;5073502;28;20037;-70
2024/01/18 02:32:50;;;;;;;8.27;1.95;;;;;;;;;;5056048;28;20211;-70
2024/01/18 02:35:17;;;;;;;4.75;1.40;;;;;;;;;;5055405;28;20142;-70
2024/01/18 02:37:43;;;;;;;4.38;1.98;;;;;;;;;;5087444;28;20059;-70
2024/01/18 02:40:09;;;;;;;5.55;2.33;;;;;;;;;;5074968;28;20032;-70
2024/01/18 02:42:35;;;;;;;9.77;3.05;;;;;;;;;;5072454;28;20033;-70
2024/01/18 02:45:03;;;;;;;9.65;2.97;;;;;;;;;;5071241;28;20048;-70
2024/01/18 02:47:30;;;;;;;5.78;2.45;;;;;;;;;;5073104;28;20513;-70
2024/01/18 02:49:56;;;;;;;7.00;2.72;;;;;;;;;;5084408;28;20389;-71
2024/01/18 02:52:22;;;;;;;9.75;2.75;;;;;;;;;;5081530;28;20092;-71
2024/01/18 02:54:48;;;;;;;10.70;2.85;;;;;;;;;;5089154;28;20196;-71
2024/01/18 02:57:14;;;;;;;8.05;2.70;;;;;;;;;;5087873;28;20039;-71
2024/01/18 02:59:40;;;;;;;12.43;3.45;;;;;;;;;;5067971;28;20519;-71
2024/01/18 03:02:06;;;;;;;4.13;2.25;;;;;;;;;;5078367;28;20040;-71
2024/01/18 03:04:33;;;;;;;4.03;2.38;;;;;;;;;;5080976;28;20040;-71
2024/01/18 03:06:59;;;;;;;8.25;2.22;;;;;;;;;;5073339;28;20028;-71
2024/01/18 03:09:26;;;;;;;7.15;2.33;;;;;;;;;;5074764;28;20043;-71
2024/01/18 03:11:52;;;;;;;7.10;2.08;;;;;;;;;;5057960;28;20040;-71
2024/01/18 03:14:20;;;;;;;8.55;2.30;;;;;;;;;;5074854;28;20040;-71
2024/01/18 03:16:46;;;;;;;5.72;2.30;;;;;;;;;;5095599;28;20371;-71
2024/01/18 03:19:12;;;;;;;5.20;2.10;;;;;;;;;;5075003;28;20102;-71
2024/01/18 03:21:39;;;;;;;8.35;2.30;;;;;;;;;;5080094;28;20041;-71
2024/01/18 03:24:05;;;;;;;6.40;2.00;;;;;;;;;;5082501;28;20401;-71
2024/01/18 03:26:31;;;;;;;4.32;1.90;;;;;;;;;;5090191;28;20035;-71
2024/01/18 03:28:57;;;;;;;12.45;2.33;;;;;;;;;;5089467;28;20063;-71
2024/01/18 03:31:23;;;;;;;4.38;1.80;;;;;;;;;;5075685;28;20068;-71
2024/01/18 03:33:49;;;;;;;3.72;1.90;;;;;;;;;;5084800;28;20043;-71
2024/01/18 03:36:15;;;;;;;10.93;2.60;;;;;;;;;;5091923;28;20446;-71
2024/01/18 03:38:42;;;;;;;7.82;2.13;;;;;;;;;;5074356;28;20555;-71
2024/01/18 03:41:08;;;;;;;3.22;2.03;;;;;;;;;;5075573;28;20048;-71
2024/01/18 03:43:34;;;;;;;7.60;2.22;;;;;;;;;;5092064;28;20036;-71
2024/01/18 03:46:00;;;;;;;4.07;2.10;;;;;;;;;;5091875;28;20074;-71
2024/01/18 03:48:27;;;;;;;6.50;2.13;;;;;;;;;;5063857;28;20048;-71
2024/01/18 03:50:53;;;;;;;4.72;2.00;;;;;;;;;;5091203;28;20043;-71
2024/01/18 03:53:19;;;;;;;3.90;2.15;;;;;;;;;;5078738;28;20037;-71
2024/01/18 03:55:45;;;;;;;4.90;2.08;;;;;;;;;;5060441;28;20573;-71
2024/01/18 03:58:11;;;;;;;3.65;1.90;;;;;;;;;;5079326;28;20485;-71
2024/01/18 04:00:39;;;;;;;4.75;2.20;;;;;;;;;;5079151;28;20044;-71
2024/01/18 04:03:05;;;;;;;9.77;2.35;;;;;;;;;;5082518;28;20040;-71
2024/01/18 04:05:31;;;;;;;9.30;2.42;;;;;;;;;;5081462;28;20392;-71
2024/01/18 04:07:57;;;;;;;7.40;2.42;;;;;;;;;;5060472;28;20029;-71
2024/01/18 04:10:23;;;;;;;6.05;2.17;;;;;;;;;;5087842;28;20040;-71
2024/01/18 04:12:49;;;;;;;4.50;2.22;;;;;;;;;;5086185;28;20063;-71
2024/01/18 04:15:16;;;;;;;8.65;2.28;;;;;;;;;;5074191;28;20040;-71
2024/01/18 04:17:42;;;;;;;13.20;2.67;;;;;;;;;;5074599;28;20056;-71
2024/01/18 04:20:10;;;;;;;7.30;2.38;;;;;;;;;;5091903;28;20480;-71
2024/01/18 04:22:37;;;;;;;7.35;2.80;;;;;;;;;;5074896;28;20036;-71
2024/01/18 04:25:03;;;;;;;9.98;2.17;;;;;;;;;;5083983;28;20028;-71
2024/01/18 04:27:29;;;;;;;4.85;2.00;;;;;;;;;;5059761;28;20033;-71
2024/01/18 04:29:55;;;;;;;3.95;2.30;;;;;;;;;;5074378;28;20115;-71
2024/01/18 04:32:21;;;;;;;6.15;2.22;;;;;;;;;;5061826;28;20045;-71
2024/01/18 04:34:47;;;;;;;4.55;1.88;;;;;;;;;;5078867;28;20571;-71
2024/01/18 04:37:14;;;;;;;3.95;1.50;;;;;;;;;;5066437;28;20086;-71
2024/01/18 04:39:40;;;;;;;2.70;2.03;;;;;;;;;;5075276;28;20101;-71
2024/01/18 04:42:08;;;;;;;15.05;1.70;;;;;;;;;;5079287;28;20090;-71
2024/01/18 04:44:34;;;;;;;3.35;1.50;;;;;;;;;;5081894;28;20051;-70
2024/01/18 04:47:00;;;;;;;2.70;1.48;;;;;;;;;;5080651;28;20032;-71
2024/01/18 04:49:26;;;;;;;6.82;1.88;;;;;;;;;;5078062;28;20032;-70
2024/01/18 04:51:52;;;;;;;6.20;1.50;;;;;;;;;;5074437;28;20032;-70
2024/01/18 04:54:18;;;;;;;13.30;1.55;;;;;;;;;;5082517;28;20044;-71
2024/01/18 04:56:45;;;;;;;3.92;1.52;;;;;;;;;;5074770;28;20051;-70
2024/01/18 04:59:11;;;;;;;5.15;1.40;;;;;;;;;;5072254;28;20059;-70
2024/01/18 05:01:39;;;;;;;6.07;2.40;;;;;;;;;;5072922;28;20098;-70
2024/01/18 05:04:06;;;;;;;6.28;1.63;;;;;;;;;;5073494;28;20041;-70
2024/01/18 05:06:32;;;;;;;3.30;1.55;;;;;;;;;;5085656;28;20067;-71
2024/01/18 05:08:58;;;;;;;5.88;1.70;;;;;;;;;;5091828;28;20078;-70
2024/01/18 05:11:25;;;;;;;4.03;1.50;;;;;;;;;;5078930;28;20047;-70
2024/01/18 05:13:51;;;;;;;9.93;1.83;;;;;;;;;;5063760;28;20068;-70
2024/01/18 05:16:18;;;;;;;6.00;2.10;;;;;;;;;;5080710;28;20105;-71
2024/01/18 05:18:44;;;;;;;4.28;1.63;;;;;;;;;;5060575;28;20546;-71
2024/01/18 05:21:10;;;;;;;6.30;2.17;;;;;;;;;;5081171;28;20044;-71
2024/01/18 05:23:37;;;;;;;2.83;1.70;;;;;;;;;;5073937;28;20044;-70
2024/01/18 05:26:03;;;;;;;6.30;1.80;;;;;;;;;;5084781;28;20028;-71
2024/01/18 05:28:29;;;;;;;10.75;2.20;;;;;;;;;;5090355;28;20050;-71
2024/01/18 05:30:58;;;;;;;9.35;2.53;;;;;;;;;;5066502;28;20054;-71
2024/01/18 05:33:25;;;;;;;4.47;2.15;;;;;;;;;;5090837;28;20101;-71
2024/01/18 05:35:51;;;;;;;3.10;1.75;;;;;;;;;;5084584;28;20100;-71
2024/01/18 05:38:17;;;;;;;3.72;2.03;;;;;;;;;;5102697;28;20501;-71
2024/01/18 05:40:45;;;;;;;4.03;2.00;;;;;;;;;;5096443;28;20039;-71
2024/01/18 05:43:11;;;;;;;5.55;2.22;;;;;;;;;;5077560;28;20091;-71
2024/01/18 05:45:37;;;;;;;6.50;2.42;;;;;;;;;;5077841;28;20068;-71
2024/01/18 05:48:03;;;;;;;6.97;2.42;;;;;;;;;;5070949;28;20044;-71
2024/01/18 05:50:29;;;;;;;6.32;2.22;;;;;;;;;;5077560;28;20037;-70
2024/01/18 05:52:55;;;;;;;5.53;1.80;;;;;;;;;;5084136;28;20050;-70
2024/01/18 05:55:21;;;;;;;9.30;2.05;;;;;;;;;;5075345;28;20041;-71
2024/01/18 05:57:47;;;;;;;7.55;1.90;;;;;;;;;;5073748;28;20532;-71
2024/01/18 06:00:14;;;;;;;6.05;1.90;;;;;;;;;;5081120;28;20045;-71
2024/01/18 06:02:40;;;;;;;4.40;1.90;;;;;;;;;;5055290;28;20044;-70
2024/01/18 06:05:06;;;;;;;8.23;2.05;;;;;;;;;;5055402;28;20028;-70
2024/01/18 06:07:33;;;;;;;9.15;2.05;;;;;;;;;;5073499;28;20056;-70
2024/01/18 06:10:00;;;;;;;3.33;2.28;;;;;;;;;;5048264;28;20066;-70
2024/01/18 06:12:26;;;;;;;10.23;2.30;;;;;;;;;;5056389;28;20374;-70
2024/01/18 06:14:52;;;;;;;9.52;2.60;;;;;;;;;;5055009;28;20051;-70
2024/01/18 06:17:18;;;;;;;4.85;2.60;;;;;;;;;;5088147;28;20036;-70
2024/01/18 06:19:44;;;;;;;5.85;2.53;;;;;;;;;;5072963;28;20106;-70
2024/01/18 06:22:11;;;;;;;7.68;2.58;;;;;;;;;;5055177;28;20408;-70
2024/01/18 06:24:37;;;;;;;10.43;2.67;;;;;;;;;;5054770;28;20064;-70
2024/01/18 06:27:03;;;;;;;13.20;2.92;;;;;;;;;;5069226;28;20044;-70
2024/01/18 06:29:30;;;;;;;4.80;2.63;;;;;;;;;;5050432;28;20043;-70
2024/01/18 06:31:56;;;;;;;11.38;3.38;;;;;;;;;;5090160;28;20459;-70
2024/01/18 06:34:22;;;;;;;6.85;2.70;;;;;;;;;;5078628;28;20043;-70
2024/01/18 06:36:51;;;;;;;8.90;3.00;;;;;;;;;;5094105;28;20032;-70
2024/01/18 06:39:17;;;;;;;6.43;3.00;;;;;;;;;;5084540;28;20048;-70
2024/01/18 06:41:43;;;;;;;7.28;3.00;;;;;;;;;;5045690;28;20040;-70
2024/01/18 06:44:09;;;;;;;11.55;3.90;;;;;;;;;;5086821;28;20110;-70
2024/01/18 06:46:35;;;;;;;7.60;2.80;;;;;;;;;;5083622;28;20392;-70
2024/01/18 06:49:01;;;;;;;15.75;3.25;;;;;;;;;;5069781;28;20116;-70
2024/01/18 06:51:28;;;;;;;8.35;3.20;;;;;;;;;;5090266;28;20036;-70
2024/01/18 06:53:55;;;;;;;8.73;3.40;;;;;;;;;;5076970;28;20094;-70
2024/01/18 06:56:21;;;;;;;7.47;3.50;;;;;;;;;;5080929;28;20120;-70
2024/01/18 06:58:47;;;;;;;13.38;3.95;;;;;;;;;;5081395;28;20040;-70
2024/01/18 07:01:13;;;;;;;14.48;4.47;;;;;;;;;;5084338;28;20075;-70
2024/01/18 07:03:41;;;;;;;16.98;5.20;;;;;;;;;;5081795;28;20131;-70
2024/01/18 07:06:08;;;;;;;19.13;6.43;;;;;;;;;;5090676;28;20400;-70
2024/01/18 07:08:37;;;;;;;15.52;5.20;;;;;;;;;;5058680;28;20135;-70
2024/01/18 07:11:04;;;;;;;20.45;5.57;;;;;;;;;;5075845;28;20404;-70
2024/01/18 07:13:30;;;;;;;16.75;7.15;;;;;;;;;;5070237;28;20395;-70
2024/01/18 07:15:56;;;;;;;21.77;5.78;;;;;;;;;;5082115;28;20480;-69
2024/01/18 07:18:22;;;;;;;12.80;6.28;;;;;;;;;;5075024;28;20145;-70
2024/01/18 07:20:48;;;;;;;13.52;5.72;;;;;;;;;;5080343;28;20145;-70
2024/01/18 07:23:14;;;;;;;9.88;5.13;;;;;;;;;;5084036;28;20042;-70
2024/01/18 07:25:41;;;;;;;24.75;4.72;;;;;;;;;;5089037;28;20082;-70
2024/01/18 07:28:07;;;;;;;17.40;4.63;;;;;;;;;;5072411;28;20033;-70
2024/01/18 07:30:33;;;;;;;11.07;3.97;;;;;;;;;;5078998;28;20047;-70
2024/01/18 07:32:59;;;;;;;9.18;4.20;;;;;;;;;;5082456;28;20072;-70
2024/01/18 07:35:25;;;;;;;11.40;3.80;;;;;;;;;;5075266;28;20044;-70
2024/01/18 07:37:51;;;;;;;12.57;3.75;;;;;;;;;;5083583;28;20046;-70
2024/01/18 07:40:17;;;;;;;18.08;3.60;;;;;;;;;;5083379;28;20552;-70
2024/01/18 07:42:44;;;;;;;9.05;3.53;;;;;;;;;;5074524;28;20036;-70
2024/01/18 07:45:14;;;;;;;11.68;3.63;;;;;;;;;;5060706;28;20032;-70
2024/01/18 07:47:40;;;;;;;7.28;3.05;;;;;;;;;;5091211;28;20063;-70
2024/01/18 07:50:06;;;;;;;10.80;3.08;;;;;;;;;;5085181;28;20161;-71
2024/01/18 07:52:32;;;;;;;15.57;3.10;;;;;;;;;;5065124;28;20373;-70
2024/01/18 07:54:58;;;;;;;7.68;3.03;;;;;;;;;;5065550;28;20040;-70
2024/01/18 07:57:24;;;;;;;15.38;3.20;;;;;;;;;;5045117;28;20047;-71
2024/01/18 07:59:50;;;;;;;12.48;3.22;;;;;;;;;;5083459;28;20040;-70
2024/01/18 08:02:16;;;;;;;12.80;2.65;;;;;;;;;;5088225;28;20037;-71
2024/01/18 08:04:43;;;;;;;5.10;2.88;;;;;;;;;;5089661;28;20507;-71
2024/01/18 08:07:09;;;;;;;5.47;3.20;;;;;;;;;;5070347;28;20531;-71
2024/01/18 08:09:37;;;;;;;11.52;2.80;;;;;;;;;;5067340;28;20036;-70
2024/01/18 08:12:05;;;;;;;11.63;3.33;;;;;;;;;;5082501;28;20051;-71
2024/01/18 08:14:31;;;;;;;17.27;2.75;;;;;;;;;;5077792;28;20058;-70
2024/01/18 08:16:57;;;;;;;5.03;2.58;;;;;;;;;;5061792;28;20081;-70
2024/01/18 08:19:24;;;;;;;8.27;2.35;;;;;;;;;;5067149;28;20524;-70
2024/01/18 08:21:50;;;;;;;11.32;2.67;;;;;;;;;;5091360;28;20541;-69
2024/01/18 08:24:16;;;;;;;15.20;2.92;;;;;;;;;;5076385;28;20041;-70
2024/01/18 08:26:43;;;;;;;11.32;2.63;;;;;;;;;;5083569;28;20504;-70
2024/01/18 08:29:09;;;;;;;10.27;2.60;;;;;;;;;;5075169;28;20082;-70
2024/01/18 08:31:35;;;;;;;15.07;3.08;;;;;;;;;;5073663;28;20040;-70
2024/01/18 08:34:02;;;;;;;5.32;2.80;;;;;;;;;;5063655;28;20400;-71
2024/01/18 08:36:28;;;;;;;7.88;2.60;;;;;;;;;;5079327;28;20060;-70
2024/01/18 08:38:54;;;;;;;10.50;3.35;;;;;;;;;;5076182;28;20039;-71
2024/01/18 08:41:21;;;;;;;6.20;2.10;;;;;;;;;;5078973;28;20040;-72
2024/01/18 08:43:48;;;;;;;7.18;2.42;;;;;;;;;;5079751;28;20094;-71
2024/01/18 08:46:14;;;;;;;6.65;2.13;;;;;;;;;;5073324;28;20036;-72
2024/01/18 08:48:41;;;;;;;13.63;2.30;;;;;;;;;;5079128;28;20123;-71
2024/01/18 08:51:13;;;;;;;1.92;1.83;;;;;;;;;;5075091;28;20034;-71
2024/01/18 08:53:42;;;;;;;4.00;2.08;;;;;;;;;;5073518;28;20044;-71
2024/01/18 08:56:09;;;;;;;6.28;1.77;;;;;;;;;;5073950;28;20049;-71
2024/01/18 08:58:36;;;;;;;9.35;2.10;;;;;;;;;;5073768;28;20515;-71
2024/01/18 09:01:02;;;;;;;2.67;1.70;;;;;;;;;;5073921;28;20048;-71
2024/01/18 09:03:28;;;;;;;9.35;2.20;;;;;;;;;;5058019;28;20040;-71
2024/01/18 09:05:55;;;;;;;4.55;2.05;;;;;;;;;;5074088;28;20033;-71
2024/01/18 09:08:22;;;;;;;8.73;2.45;;;;;;;;;;5073620;28;20482;-71
2024/01/18 09:10:48;;;;;;;8.32;2.20;;;;;;;;;;5057208;28;20121;-71
2024/01/18 09:13:15;;;;;;;8.10;2.38;;;;;;;;;;5073166;28;20041;-71
2024/01/18 09:15:41;;;;;;;14.57;3.28;;;;;;;;;;5073791;28;20593;-71
2024/01/18 09:18:10;;;;;;;6.82;2.58;;;;;;;;;;5075184;28;20055;-71
2024/01/18 09:20:37;;;;;;;7.72;2.53;;;;;;;;;;5076979;28;20044;-72
2024/01/18 09:23:03;;;;;;;10.95;2.67;;;;;;;;;;5090744;28;20060;-70
2024/01/18 09:25:29;;;;;;;14.25;3.13;;;;;;;;;;5095339;28;20036;-72
2024/01/18 09:27:55;;;;;;;7.68;3.30;;;;;;;;;;5078241;28;20072;-72
2024/01/18 09:30:23;;;;;;;10.18;3.58;;;;;;;;;;5096236;28;20058;-72
2024/01/18 09:32:49;;;;;;;11.85;3.28;;;;;;;;;;5093897;28;20070;-71
2024/01/18 09:35:15;;;;;;;9.30;3.13;;;;;;;;;;5086659;28;20040;-72
2024/01/18 09:37:42;;;;;;;8.85;3.60;;;;;;;;;;5098130;28;20064;-72
2024/01/18 09:40:11;;;;;;;6.65;2.83;;;;;;;;;;5092052;28;20036;-71
2024/01/18 09:42:43;;;;;;;9.68;3.13;;;;;;;;;;5077738;28;20044;-72
2024/01/18 09:45:09;;;;;;;16.48;3.45;;;;;;;;;;5072085;28;20040;-72
2024/01/18 09:47:36;;;;;;;18.63;3.15;;;;;;;;;;5072357;28;20047;-71
2024/01/18 09:50:03;;;;;;;13.07;2.03;;;;;;;;;;5072328;28;20047;-72
2024/01/18 09:52:29;;;;;;;3.63;1.73;;;;;;;;;;5072483;28;20056;-72
2024/01/18 09:54:55;;;;;;;10.57;2.25;;;;;;;;;;5071774;28;20047;-73
2024/01/18 09:57:30;;;;;;;5.97;1.50;;;;;;;;;;5074199;28;20078;-73
2024/01/18 10:00:00;;;;;;;9.95;1.58;;;;;;;;;;5071756;28;20057;-71
2024/01/18 10:02:27;;;;;;;7.43;1.30;;;;;;;;;;5072275;28;20059;-72
2024/01/18 10:05:00;;;;;;;3.50;1.55;;;;;;;;;;5055248;28;20032;-73
2024/01/18 10:07:27;;;;;;;5.00;1.70;;;;;;;;;;5071981;28;20045;-74
2024/01/18 10:09:54;;;;;;;3.58;1.60;;;;;;;;;;5071037;28;20036;-74
2024/01/18 10:12:20;;;;;;;8.00;1.80;;;;;;;;;;5071632;28;20119;-74
2024/01/18 10:14:46;;;;;;;1.88;1.38;;;;;;;;;;5055228;28;20039;-74
2024/01/18 10:17:20;;;;;;;1.40;1.30;;;;;;;;;;5054742;28;20079;-74
2024/01/18 10:19:49;;;;;;;7.13;1.60;;;;;;;;;;5083728;28;20048;-74
2024/01/18 10:22:15;;;;;;;2.83;2.13;;;;;;;;;;5085848;28;20043;-74
2024/01/18 10:24:41;;;;;;;5.07;1.77;;;;;;;;;;5043408;28;20047;-74
2024/01/18 10:27:07;;;;;;;7.88;1.80;;;;;;;;;;5085802;28;20071;-75
2024/01/18 10:29:36;;;;;;;8.38;1.88;;;;;;;;;;5073380;28;20032;-75
2024/01/18 10:32:08;;;;;;;3.38;1.50;;;;;;;;;;5085685;28;20040;-76
2024/01/18 10:34:34;;;;;;;;;;;;;;;;;;5090254;28;20047;-76
2024/01/18 10:37:00;;;;;;;3.10;1.70;;;;;;;;;;5078832;28;19923;-73
2024/01/18 10:39:26;;;;;;;5.30;2.00;;;;;;;;;;5079800;28;20388;-75
2024/01/18 10:41:53;;;;;;;5.03;2.20;;;;;;;;;;5073782;28;20115;-75
2024/01/18 10:44:19;;;;;;;10.80;2.63;;;;;;;;;;5081799;28;20107;-76
2024/01/18 10:46:46;;;;;;;11.65;2.20;;;;;;;;;;5066362;28;20043;-75
2024/01/18 10:49:12;;;;;;;6.28;2.83;;;;;;;;;;5071934;28;20032;-75
2024/01/18 10:51:42;;;;;;;5.85;1.92;;;;;;;;;;5080605;28;20036;-75
2024/01/18 10:54:09;;;;;;;9.80;2.38;;;;;;;;;;5077524;28;20032;-75
2024/01/18 10:56:36;;;;;;;8.25;2.47;;;;;;;;;;5058206;28;20094;-75
2024/01/18 10:59:04;;;;;;;7.20;1.85;;;;;;;;;;5071495;28;20450;-75
2024/01/18 11:01:31;;;;;;;8.32;2.05;;;;;;;;;;5071143;28;20055;-76
2024/01/18 11:03:58;;;;;;;6.45;1.58;;;;;;;;;;5078927;28;20044;-76
2024/01/18 11:06:25;;;;;;;3.60;1.70;;;;;;;;;;5078929;28;20550;-76
2024/01/18 11:08:52;;;;;;;11.48;2.47;;;;;;;;;;5059662;28;20072;-76
2024/01/18 11:11:18;;;;;;;8.60;2.08;;;;;;;;;;5056710;28;20048;-76
2024/01/18 11:13:46;;;;;;;17.30;2.35;;;;;;;;;;5062511;28;20054;-74
2024/01/18 11:16:12;;;;;;;13.05;2.30;;;;;;;;;;5091700;28;20051;-75
2024/01/18 11:18:38;;;;;;;7.82;2.70;;;;;;;;;;5076752;28;20123;-74
2024/01/18 11:21:06;;;;;;;12.27;2.03;;;;;;;;;;5055767;28;20167;-74
2024/01/18 11:23:36;;;;;;;10.75;3.15;;;;;;;;;;5069754;28;20040;-74
2024/01/18 11:26:07;;;;;;;15.38;3.20;;;;;;;;;;5095398;28;20040;-74
2024/01/18 11:28:34;;;;;;;15.65;3.03;;;;;;;;;;5093991;28;20535;-75
2024/01/18 11:31:00;;;;;;;13.07;2.88;;;;;;;;;;5089359;28;20119;-74
2024/01/18 11:33:26;;;;;;;16.83;2.72;;;;;;;;;;5073275;28;20083;-75
2024/01/18 11:35:53;;;;;;;8.77;2.60;;;;;;;;;;5056388;28;20045;-75
2024/01/18 11:38:19;;;;;;;15.52;2.42;;;;;;;;;;5084356;28;20500;-74
2024/01/18 11:40:49;;;;;;;11.68;2.20;;;;;;;;;;5074651;28;20101;-73
2024/01/18 11:43:15;;;;;;;22.23;2.33;;;;;;;;;;5088250;28;20040;-73
2024/01/18 11:45:49;;;;;;;11.10;2.53;;;;;;;;;;5077782;28;20115;-73
2024/01/18 11:48:15;;;;;;;9.80;2.30;;;;;;;;;;5061616;28;20362;-74
2024/01/18 11:50:41;;;;;;;12.70;3.20;;;;;;;;;;5041872;28;20496;-73
2024/01/18 11:53:11;;;;;;;12.68;2.78;;;;;;;;;;5090230;28;20040;-73
2024/01/18 11:55:42;;;;;;;18.25;2.88;;;;;;;;;;5070842;28;20119;-72
2024/01/18 11:58:09;;;;;;;15.13;3.33;;;;;;;;;;5059284;28;20036;-72
2024/01/18 12:00:36;;;;;;;6.57;2.17;;;;;;;;;;5078119;28;20392;-73
2024/01/18 12:03:07;;;;;;;5.55;2.65;;;;;;;;;;5083675;28;20044;-72
2024/01/18 12:05:33;;;;;;;9.07;1.98;;;;;;;;;;5106629;28;20044;-73
2024/01/18 12:08:00;;;;;;;14.15;2.13;;;;;;;;;;5068593;28;20032;-72
2024/01/18 12:10:26;;;;;;;16.83;2.85;;;;;;;;;;5091236;28;20055;-73
2024/01/18 12:12:53;;;;;;;12.48;2.20;;;;;;;;;;5075380;28;20131;-73
2024/01/18 12:15:19;;;;;;;16.60;2.10;;;;;;;;;;5071365;28;20040;-73
2024/01/18 12:17:46;;;;;;;15.65;3.45;;;;;;;;;;5079405;28;20048;-73
2024/01/18 12:20:17;;;;;;;22.25;2.90;;;;;;;;;;5091968;28;20075;-72
2024/01/18 12:22:43;;;;;;;11.60;2.25;;;;;;;;;;5089230;28;20045;-72
2024/01/18 12:25:10;;;;;;;17.33;2.45;;;;;;;;;;5076806;28;20496;-71
2024/01/18 12:27:36;;;;;;;21.50;3.10;;;;;;;;;;5097101;28;20032;-72
2024/01/18 12:30:03;;;;;;;15.57;3.10;;;;;;;;;;5083537;28;20036;-72
2024/01/18 12:32:29;;;;;;;11.77;2.72;;;;;;;;;;5083689;28;20044;-72
2024/01/18 12:34:57;;;;;;;10.00;2.50;;;;;;;;;;5097382;28;20114;-72
2024/01/18 12:37:23;;;;;;;14.07;3.30;;;;;;;;;;5084933;28;20048;-72
2024/01/18 12:39:51;;;;;;;22.92;2.60;;;;;;;;;;5075582;28;20032;-71
2024/01/18 12:42:17;;;;;;;11.60;3.15;;;;;;;;;;5092935;28;20446;-72
2024/01/18 12:44:43;;;;;;;15.02;3.28;;;;;;;;;;5103643;28;20061;-72
2024/01/18 12:47:10;;;;;;;13.38;2.78;;;;;;;;;;5088171;28;20043;-71
2024/01/18 12:49:36;;;;;;;8.32;2.30;;;;;;;;;;5082454;28;20040;-71
2024/01/18 12:52:03;;;;;;;17.30;2.28;;;;;;;;;;5080871;28;20028;-71
2024/01/18 12:54:29;;;;;;;4.45;1.92;;;;;;;;;;5076009;28;20367;-71
2024/01/18 12:57:04;;;;;;;14.88;2.55;;;;;;;;;;5070706;28;20044;-70
2024/01/18 12:59:30;;;;;;;10.52;2.38;;;;;;;;;;5057667;28;20041;-71
2024/01/18 13:01:57;;;;;;;14.25;2.20;;;;;;;;;;5102971;28;20093;-71
2024/01/18 13:04:24;;;;;;;13.02;2.40;;;;;;;;;;5065537;28;20117;-71
2024/01/18 13:06:52;;;;;;;11.95;2.22;;;;;;;;;;5090886;28;20040;-71
2024/01/18 13:09:22;;;;;;;11.13;1.98;;;;;;;;;;5080723;28;20488;-70
2024/01/18 13:11:49;;;;;;;5.05;2.00;;;;;;;;;;5067615;28;20052;-70
2024/01/18 13:14:16;;;;;;;13.48;2.40;;;;;;;;;;5075041;28;20044;-71
2024/01/18 13:16:43;;;;;;;5.93;1.90;;;;;;;;;;5093847;28;20546;-71
2024/01/18 13:19:10;;;;;;;20.55;1.83;;;;;;;;;;5077319;28;20040;-71
2024/01/18 13:21:37;;;;;;;15.45;2.05;;;;;;;;;;5091030;28;20048;-71
2024/01/18 13:24:03;;;;;;;7.80;1.70;;;;;;;;;;5073218;28;20419;-71
2024/01/18 13:26:30;;;;;;;12.85;2.53;;;;;;;;;;5071553;28;20521;-71
2024/01/18 13:28:56;;;;;;;8.73;1.75;;;;;;;;;;5058900;28;20032;-71
2024/01/18 13:31:23;;;;;;;8.07;2.33;;;;;;;;;;5076891;28;20123;-71
2024/01/18 13:33:49;;;;;;;8.70;1.85;;;;;;;;;;5077025;28;20035;-71
2024/01/18 13:36:16;;;;;;;5.75;2.10;;;;;;;;;;5083732;28;20036;-71
2024/01/18 13:38:42;;;;;;;10.73;2.13;;;;;;;;;;5076300;28;20074;-71
2024/01/18 13:41:08;;;;;;;12.00;2.33;;;;;;;;;;5068179;28;20075;-70
2024/01/18 13:43:34;;;;;;;10.30;1.95;;;;;;;;;;5080697;28;20123;-71
2024/01/18 13:46:04;;;;;;;7.13;2.33;;;;;;;;;;5061576;28;20119;-71
2024/01/18 13:48:32;;;;;;;13.75;2.58;;;;;;;;;;5075093;28;20094;-71
2024/01/18 13:50:58;;;;;;;9.43;1.70;;;;;;;;;;5056968;28;20044;-71
2024/01/18 13:53:25;;;;;;;6.25;1.70;;;;;;;;;;5074554;28;20131;-71
2024/01/18 13:55:51;;;;;;;8.63;2.03;;;;;;;;;;5082334;28;20040;-70
2024/01/18 13:58:17;;;;;;;6.07;1.92;;;;;;;;;;5082359;28;20047;-71
2024/01/18 14:00:44;;;;;;;7.70;1.80;;;;;;;;;;5080331;28;20037;-71
2024/01/18 14:03:10;;;;;;;8.02;2.80;;;;;;;;;;5069073;28;20070;-71
2024/01/18 14:05:36;;;;;;;9.68;1.65;;;;;;;;;;5078661;28;20370;-71
2024/01/18 14:08:04;;;;;;;6.10;1.95;;;;;;;;;;5080782;28;20557;-71
2024/01/18 14:10:30;;;;;;;12.88;1.90;;;;;;;;;;5055074;28;20052;-71
2024/01/18 14:12:57;;;;;;;8.10;1.88;;;;;;;;;;5072162;28;20045;-71
2024/01/18 14:15:24;;;;;;;13.13;1.95;;;;;;;;;;5083989;28;20157;-71
2024/01/18 14:17:50;;;;;;;11.07;1.85;;;;;;;;;;5071640;28;20110;-71
2024/01/18 14:20:17;;;;;;;13.35;1.95;;;;;;;;;;5082286;28;20050;-71
2024/01/18 14:22:45;;;;;;;6.65;1.58;;;;;;;;;;5092200;28;20066;-71
2024/01/18 14:25:12;;;;;;;4.28;1.70;;;;;;;;;;5074707;28;20128;-71
2024/01/18 14:27:39;;;;;;;9.70;1.50;;;;;;;;;;5056289;28;20036;-71
2024/01/18 14:30:07;;;;;;;7.05;1.70;;;;;;;;;;5082665;28;20123;-71
2024/01/18 14:32:33;;;;;;;12.90;1.77;;;;;;;;;;5088599;28;20047;-71
2024/01/18 14:34:59;;;;;;;8.88;1.80;;;;;;;;;;5066351;28;20046;-71